Twin Springs, Nevada Weather observations

Data are for observation ending at time listed.
 Day   Time    Ave.   Ave.  Ave.  Vector   Max.   Stn.    Total    Solar   Ave.  
  of    of     Air    Rel.  Wind   Wind    Wind   Baro.  Precip.   Rad.    Soil  
Year   Day     Temp.  Hum.  Speed  Dir.    Gust   Pres.                    Temp. 
2014   (PST)    F      %     mph   deg.    mph     mb.     in.     W/m2     F   
------------------------------------------------------------------------------
 241   20:00   81.2    12    6.4   188     12.3    842     0.00       0    83.1
 241   21:00   82.5    12    8.8   191     19.1    842     0.00       0    82.1
 241   22:00   82.2    12    9.7   192     18.8    842     0.00       0    81.2
 241   23:00   81.4    12    8.7   189     15.9    842     0.00       0    80.5
 242    0:00   76.1    15    3.7   317     13.9    843     0.00       0    80.0
 242    1:00   72.4    16    4.2   124     10.0    842     0.00       0    79.4
 242    2:00   70.2    18    5.2   116      7.5    842     0.00       0    78.5
 242    3:00   72.3    16    3.3   349      9.6    842     0.00       0    77.6
 242    4:00   69.0    19    2.9    34      5.9    842     0.00       0    76.9
 242    5:00   69.7    19    4.9     9      7.7    842     0.00       0    76.2
 242    6:00   69.9    19    4.1   292      8.5    843     0.00      11    75.6
 242    7:00   70.5    19    4.1   358      7.9    843     0.00      72    75.1
 242    8:00   74.4    18    3.3   359      6.9    843     0.00     156    74.7
 242    9:00   78.3    16    3.0   277     10.9    844     0.00     242    74.8
 242   10:00   81.0    14    4.3   237     13.0    844     0.00     477    75.3
 242   11:00   86.1    11    5.6   252     16.6    843     0.00     939    76.2
 242   12:00   88.0    12    7.4   256     17.5    842     0.00     975    78.6
 242   13:00   89.3    12    8.5   249     19.5    841     0.00     953    80.9
 242   14:00   89.7    11    9.1   237     25.2    841     0.00     868    82.2
 242   15:00   90.2    11    9.5   221     21.2    840     0.00     726    83.4
 242   16:00   90.8    10    9.3   250     21.3    839     0.00     534    84.4
 242   17:00   90.7    10    9.4   251     24.8    839     0.00     339    85.5
 242   18:00   88.4    10    7.6   215     17.3    838     0.00     101    86.1
 242   19:00   84.1    10    4.8   258     16.2    839     0.00       5    85.7

Return to Twin Springs, Nevada graphs page.


Western Regional Climate Center,wrcc@dri.edu